Time;durP1;ratioP1;P1;durP2;ratioP2;P2;SDS_P1;SDS_P2;PMS_P1;PMS_P2;Temp;Humidity;BMP_temperature;BMP_pressure;BME280_temperature;BME280_humidity;BME280_pressure;Samples;Min_cycle;Max_cycle;Signal;HPM_P1;HPM_P2
2022/11/27 00:03:48;;;;;;;80.60;38.20;;;;;;;2.15;93.98;99864.98;419405;1303;108748;-41
2022/11/27 00:13:57;;;;;;;67.10;32.50;;;;;;;2.20;94.10;99870.01;419460;1294;99157;-40
2022/11/27 00:24:05;;;;;;;85.30;41.80;;;;;;;2.24;94.08;99858.53;419436;1293;111424;-40
2022/11/27 00:34:13;;;;;;;86.40;40.50;;;;;;;2.05;93.88;99857.00;419269;1294;106911;-40
2022/11/27 00:44:21;;;;;;;92.30;43.30;;;;;;;1.95;93.98;99863.57;419393;1288;98416;-39
2022/11/27 00:54:28;;;;;;;78.70;37.60;;;;;;;1.87;93.93;99866.25;419327;1295;109066;-40
2022/11/27 01:04:35;;;;;;;69.60;38.00;;;;;;;1.89;94.00;99869.73;419327;1296;99247;-38
2022/11/27 01:14:43;;;;;;;72.40;35.90;;;;;;;1.99;94.17;99873.05;419510;1295;111520;-39
2022/11/27 01:24:50;;;;;;;75.70;38.30;;;;;;;2.05;94.20;99875.10;419437;1291;108642;-39
2022/11/27 01:34:57;;;;;;;77.90;37.60;;;;;;;2.12;94.07;99869.20;419318;1301;99236;-41
2022/11/27 01:45:04;;;;;;;81.10;39.50;;;;;;;2.25;94.22;99863.33;419395;1294;109644;-40
2022/11/27 01:55:12;;;;;;;85.50;40.90;;;;;;;2.36;94.16;99865.69;419486;1295;99370;-40
2022/11/27 02:05:22;;;;;;;95.10;43.90;;;;;;;2.36;94.18;99874.09;419564;1302;113192;-39
2022/11/27 02:35:56;;;;;;;63.30;34.80;;;;;;;2.00;93.73;99868.52;419763;1301;108883;-39
2022/11/27 02:46:05;;;;;;;51.00;27.00;;;;;;;2.10;93.88;99871.88;419698;1302;99066;-40
2022/11/27 02:56:16;;;;;;;52.50;27.90;;;;;;;2.26;93.91;99877.86;419776;1303;111057;-40
2022/11/27 03:06:28;;;;;;;75.70;34.30;;;;;;;2.21;93.90;99890.01;419791;1299;107065;-40
2022/11/27 03:16:34;;;;;;;76.60;33.50;;;;;;;2.00;93.69;99889.88;419920;1295;118440;-40
2022/11/27 03:36:50;;;;;;;63.00;32.30;;;;;;;1.81;93.66;99897.85;419847;1295;99243;-40
2022/11/27 03:46:58;;;;;;;54.90;30.60;;;;;;;1.91;93.82;99888.27;419859;1302;111027;-40
2022/11/27 03:57:10;;;;;;;66.00;35.10;;;;;;;1.98;93.77;99885.52;419798;1300;107800;-39
2022/11/27 04:07:18;;;;;;;106.00;47.50;;;;;;;2.11;94.23;99887.79;419888;1299;99174;-40
2022/11/27 04:17:26;;;;;;;108.80;53.30;;;;;;;2.15;94.16;99876.63;419823;1301;107924;-39
2022/11/27 04:27:33;;;;;;;111.90;50.60;;;;;;;2.00;93.83;99872.14;419878;1293;99068;-39
2022/11/27 04:37:40;;;;;;;97.30;53.80;;;;;;;1.90;93.77;99866.09;419809;1307;111257;-40
2022/11/27 04:47:47;;;;;;;87.10;46.20;;;;;;;1.94;93.82;99866.23;419577;1295;108607;-39
2022/11/27 04:57:54;;;;;;;89.20;48.70;;;;;;;1.97;93.79;99864.27;419776;1295;98840;-40
2022/11/27 05:08:02;;;;;;;86.20;45.20;;;;;;;2.05;94.02;99869.14;419662;1307;108222;-40
2022/11/27 05:18:06;;;;;;;125.50;59.20;;;;;;;2.02;94.01;99876.63;420428;1297;99614;-40
2022/11/27 05:28:13;;;;;;;109.20;54.10;;;;;;;2.02;94.20;99870.73;419900;1297;111633;-40
2022/11/27 05:48:26;;;;;;;115.00;61.40;;;;;;;1.86;93.98;99868.52;419635;1294;98032;-40
2022/11/27 05:58:34;;;;;;;89.30;52.70;;;;;;;1.87;93.80;99858.89;419771;1303;112967;-38
2022/11/27 06:08:42;;;;;;;93.40;51.50;;;;;;;1.92;94.04;99851.85;419621;1300;108322;-40
2022/11/27 06:18:48;;;;;;;82.00;50.80;;;;;;;2.16;94.38;99857.20;419665;1304;99246;-40
2022/11/27 06:28:57;;;;;;;115.70;59.10;;;;;;;2.26;94.28;99853.98;419896;1302;108178;-39
2022/11/27 06:39:04;;;;;;;111.00;56.90;;;;;;;2.13;94.01;99863.77;419745;1294;99226;-40
2022/11/27 06:49:11;;;;;;;112.60;57.10;;;;;;;1.98;93.89;99865.02;419948;1299;111395;-39
2022/11/27 06:59:19;;;;;;;86.50;52.20;;;;;;;1.93;93.95;99870.66;419827;1301;108038;-38
2022/11/27 07:09:26;;;;;;;100.10;54.70;;;;;;;1.97;93.90;99878.98;419754;1301;99352;-40
2022/11/27 07:19:33;;;;;;;85.30;48.90;;;;;;;2.14;94.10;99884.48;419731;1303;107834;-41
2022/11/27 07:29:41;;;;;;;92.60;51.20;;;;;;;2.27;94.11;99885.67;419898;1298;98032;-39
2022/11/27 07:39:48;;;;;;;138.10;67.30;;;;;;;2.29;94.04;99882.62;419756;1302;111578;-39
2022/11/27 07:50:12;;;;;;;127.20;62.80;;;;;;;2.26;94.22;99888.65;419670;1301;107342;-37
2022/11/27 08:00:21;;;;;;;153.00;76.10;;;;;;;2.34;94.33;99886.91;419859;1295;99371;-40
2022/11/27 08:10:28;;;;;;;106.50;59.50;;;;;;;2.41;94.19;99886.63;419743;1294;108165;-39
2022/11/27 08:20:36;;;;;;;74.90;46.40;;;;;;;2.51;94.03;99886.52;419658;1301;99224;-40
2022/11/27 08:30:43;;;;;;;75.00;45.30;;;;;;;2.66;94.08;99896.91;419728;1294;111491;-41
2022/11/27 08:40:54;;;;;;;77.00;43.60;;;;;;;2.78;93.89;99902.17;419634;1301;108480;-40
2022/11/27 08:51:04;;;;;;;112.00;59.10;;;;;;;2.92;94.34;99906.07;419772;1302;98854;-41
2022/11/27 09:01:10;;;;;;;119.10;63.80;;;;;;;2.98;94.15;99900.92;419672;1297;108599;-40
2022/11/27 09:11:19;;;;;;;134.00;65.00;;;;;;;2.85;93.89;99897.15;419733;1295;98372;-40
2022/11/27 09:21:29;;;;;;;98.20;57.10;;;;;;;2.93;94.11;99892.61;419651;1300;112145;-39
2022/11/27 09:31:36;;;;;;;72.20;43.00;;;;;;;3.16;93.97;99889.62;419595;1302;107563;-40
2022/11/27 09:41:49;;;;;;;64.90;41.10;;;;;;;3.39;94.09;99894.98;419553;1295;99297;-39
2022/11/27 09:51:58;;;;;;;93.40;50.90;;;;;;;3.56;94.19;99892.53;419685;1301;107063;-40
2022/11/27 10:02:14;;;;;;;88.70;50.70;;;;;;;3.62;94.00;99874.02;419726;1295;99342;-39
2022/11/27 10:12:20;;;;;;;97.70;50.70;;;;;;;3.53;93.64;99866.15;419851;1289;111479;-39
2022/11/27 10:22:35;;;;;;;65.30;34.60;;;;;;;3.54;93.59;99855.41;419783;1304;108943;-40
2022/11/27 10:32:44;;;;;;;44.90;25.60;;;;;;;3.68;93.48;99840.15;419813;1303;99268;-39
2022/11/27 10:43:10;;;;;;;73.00;37.20;;;;;;;3.77;93.60;99826.27;419839;1294;111942;-39
2022/11/27 10:53:16;;;;;;;63.20;31.40;;;;;;;3.85;93.55;99817.77;419888;1299;106577;-40
2022/11/27 11:03:24;;;;;;;53.40;29.30;;;;;;;3.92;93.29;99813.34;419723;1304;99262;-40
2022/11/27 11:13:33;;;;;;;48.90;27.60;;;;;;;4.15;93.30;99809.59;419470;1294;348292;-40
2022/11/27 11:23:41;;;;;;;74.20;36.90;;;;;;;4.26;93.18;99804.45;419722;1295;99299;-40
2022/11/27 11:33:50;;;;;;;48.60;26.20;;;;;;;4.28;93.14;99794.75;419791;1295;110779;-39
2022/11/27 11:43:56;;;;;;;54.50;26.40;;;;;;;4.29;92.94;99790.69;419779;1302;108176;-39
2022/11/27 11:54:02;;;;;;;30.30;15.70;;;;;;;4.38;92.65;99781.89;419809;1294;99351;-38
2022/11/27 12:04:12;;;;;;;30.70;17.60;;;;;;;4.49;92.34;99774.44;419637;1295;107111;-40
2022/11/27 12:14:18;;;;;;;51.80;26.70;;;;;;;4.53;92.32;99768.46;419752;1295;99256;-39
2022/11/27 12:24:27;;;;;;;46.90;22.90;;;;;;;4.61;92.46;99758.46;419711;1303;111213;-40
2022/11/27 12:34:34;;;;;;;46.80;23.70;;;;;;;4.56;92.18;99750.29;419658;1294;107221;-40
2022/11/27 12:54:48;;;;;;;36.00;20.10;;;;;;;4.52;91.77;99750.02;419679;1302;108003;-40
2022/11/27 13:04:57;;;;;;;29.40;17.10;;;;;;;4.59;91.47;99751.34;419652;1304;98642;-40
2022/11/27 13:15:06;;;;;;;38.20;21.80;;;;;;;4.65;91.56;99750.38;419620;1295;113061;-39
2022/11/27 13:25:13;;;;;;;44.10;24.80;;;;;;;4.60;91.50;99747.60;419563;1287;107031;-38
2022/11/27 13:45:31;;;;;;;45.50;23.10;;;;;;;4.38;91.01;99748.37;419621;1304;108207;-39
2022/11/27 13:55:52;;;;;;;37.70;19.20;;;;;;;4.31;90.92;99745.10;419554;1301;99192;-39
2022/11/27 14:05:59;;;;;;;36.90;19.10;;;;;;;4.28;90.72;99746.60;419588;1302;110645;-39
2022/11/27 14:16:12;;;;;;;52.10;27.40;;;;;;;4.26;90.85;99740.38;419505;1301;107608;-40
2022/11/27 14:26:21;;;;;;;57.40;28.60;;;;;;;4.13;90.86;99732.34;419600;1295;98838;-40
2022/11/27 14:46:37;;;;;;;83.10;41.90;;;;;;;3.90;90.66;99735.16;419727;1291;106157;-39
2022/11/27 14:56:46;;;;;;;55.40;32.10;;;;;;;3.80;90.58;99736.73;419737;1304;99215;-39
2022/11/27 15:06:52;;;;;;;48.70;28.70;;;;;;;3.75;90.52;99733.83;419703;1295;110616;-39
2022/11/27 15:17:00;;;;;;;41.10;23.90;;;;;;;3.74;90.49;99730.66;419731;1302;106653;-40
2022/11/27 15:37:20;;;;;;;101.70;49.20;;;;;;;3.55;90.66;99704.55;419655;1302;108559;-39
2022/11/27 15:47:26;;;;;;;89.20;43.60;;;;;;;3.41;90.75;99699.54;419759;1294;99252;-40
2022/11/27 15:57:33;;;;;;;53.30;30.20;;;;;;;3.37;90.58;99694.62;419535;1304;111309;-39
2022/11/27 16:07:39;;;;;;;49.90;29.30;;;;;;;3.39;90.60;99689.00;419515;1293;108007;-38
2022/11/27 16:17:46;;;;;;;63.50;32.90;;;;;;;3.49;90.71;99691.39;419401;1304;98717;-39
2022/11/27 16:27:53;;;;;;;100.20;49.10;;;;;;;3.52;90.71;99675.73;419417;1302;108548;-40
2022/11/27 16:38:08;;;;;;;107.50;54.90;;;;;;;3.36;90.61;99664.56;419437;1294;98857;-40
2022/11/27 16:48:16;;;;;;;123.00;57.80;;;;;;;3.18;90.69;99659.41;419464;1294;112215;-41
2022/11/27 16:58:22;;;;;;;105.00;58.90;;;;;;;3.09;90.64;99646.44;419270;1295;106518;-39
2022/11/27 17:08:29;;;;;;;98.60;56.80;;;;;;;3.09;90.50;99642.23;419362;1303;98844;-38
2022/11/27 17:28:44;;;;;;;140.90;71.90;;;;;;;3.18;90.94;99636.20;419348;1295;99254;-40
2022/11/27 17:38:52;;;;;;;149.80;76.20;;;;;;;3.09;90.92;99626.17;419424;1301;112191;-39
2022/11/27 17:48:59;;;;;;;146.50;70.90;;;;;;;2.94;90.88;99621.13;419498;1302;107064;-39
2022/11/27 17:59:06;;;;;;;90.50;46.70;;;;;;;2.91;90.87;99618.33;419387;1303;98461;-40
2022/11/27 18:09:13;;;;;;;78.70;40.90;;;;;;;2.95;90.76;99622.92;419442;1304;109856;-40
2022/11/27 18:19:21;;;;;;;72.80;42.10;;;;;;;3.01;90.83;99621.77;419447;1302;98797;-39
2022/11/27 18:29:28;;;;;;;69.60;34.60;;;;;;;3.00;90.93;99620.30;419758;1295;110545;-40
2022/11/27 18:39:37;;;;;;;104.90;49.70;;;;;;;2.97;90.99;99622.05;419831;1295;107803;-40
2022/11/27 18:49:44;;;;;;;81.40;43.00;;;;;;;2.84;90.78;99603.17;419745;1303;99252;-40
2022/11/27 18:59:50;;;;;;;43.30;30.10;;;;;;;2.78;90.66;99584.11;419728;1301;112625;-39
2022/11/27 19:09:58;;;;;;;48.60;27.50;;;;;;;2.83;90.55;99569.27;419682;1294;107294;-40
2022/11/27 19:20:06;;;;;;;41.70;25.40;;;;;;;2.86;90.58;99563.23;419640;1299;99311;-40
2022/11/27 19:30:15;;;;;;;55.30;31.80;;;;;;;2.84;90.57;99556.98;419797;1302;107500;-39
2022/11/27 19:40:23;;;;;;;63.80;33.40;;;;;;;2.76;90.63;99555.17;419833;1302;98940;-39
2022/11/27 19:50:30;;;;;;;63.70;32.30;;;;;;;2.62;90.36;99547.02;419737;1302;110838;-40
2022/11/27 20:00:38;;;;;;;64.10;33.70;;;;;;;2.48;90.30;99542.41;419674;1304;107421;-40
2022/11/27 20:10:49;;;;;;;56.70;34.50;;;;;;;2.41;90.11;99543.77;419661;1302;99237;-38
2022/11/27 20:21:03;;;;;;;57.20;35.40;;;;;;;2.52;90.13;99541.45;419475;1294;112244;-40
2022/11/27 20:31:15;;;;;;;56.40;29.60;;;;;;;2.69;90.25;99546.93;419477;1286;109363;-39
2022/11/27 20:41:24;;;;;;;64.00;35.50;;;;;;;2.73;90.24;99548.41;419567;1293;99249;-39
2022/11/27 21:01:41;;;;;;;66.60;34.80;;;;;;;2.54;89.98;99543.55;419398;1295;99236;-39
2022/11/27 21:11:47;;;;;;;;;;;;;;;2.40;90.01;99538.37;419589;1302;111203;-40
2022/11/27 21:21:55;;;;;;;85.80;40.20;;;;;;;2.28;90.11;99533.33;419505;1294;106096;-39
2022/11/27 21:32:03;;;;;;;47.10;27.20;;;;;;;2.27;89.86;99521.46;419495;1286;99265;-40
2022/11/27 21:42:11;;;;;;;48.00;26.30;;;;;;;2.39;89.66;99508.73;419388;1294;108239;-40
2022/11/27 21:52:18;;;;;;;60.60;33.20;;;;;;;2.54;89.71;99491.73;419532;1294;97973;-40
2022/11/27 22:02:26;;;;;;;74.30;39.60;;;;;;;2.49;89.57;99465.90;419534;1299;112873;-41
2022/11/27 22:12:33;;;;;;;68.90;34.20;;;;;;;2.31;89.46;99460.66;419527;1300;108395;-40
2022/11/27 22:22:40;;;;;;;39.60;23.10;;;;;;;2.19;89.22;99458.58;419609;1301;98623;-40
2022/11/27 22:32:47;;;;;;;43.40;24.30;;;;;;;2.18;89.08;99455.23;419577;1307;107388;-39
2022/11/27 22:42:55;;;;;;;64.60;31.80;;;;;;;2.26;89.32;99450.23;419620;1305;98016;-39
2022/11/27 22:53:03;;;;;;;88.40;42.20;;;;;;;2.21;89.16;99447.06;419774;1294;112020;-40
2022/11/27 23:03:10;;;;;;;76.10;35.20;;;;;;;2.01;88.95;99439.48;419742;1302;105948;-40
2022/11/27 23:13:18;;;;;;;81.90;37.70;;;;;;;1.84;88.92;99431.27;419500;1295;336903;-40
2022/11/27 23:23:25;;;;;;;108.50;41.70;;;;;;;1.72;89.06;99427.43;419745;1304;108580;-40
2022/11/27 23:33:32;;;;;;;46.60;26.90;;;;;;;1.70;88.94;99442.97;419796;1301;99266;-40
2022/11/27 23:43:41;;;;;;;53.80;25.50;;;;;;;1.84;88.98;99446.81;419733;1303;111384;-40
